Latest Coastal Weather Observations for Barrow Island

IDW60701

Issued at 8:13 am WST Sunday 25 June 2017 (issued every 10 minutes, with the page automatically refreshed every 10 minutes)

About coastal observations | Map of coastal stations | Coastal observations for WA | Marine services | Other Formats
Station Details ID: 005094 Name: BARROW ISLAND AIRPORT Lat: -20.87 Lon: 115.41 Height: 6.4 m
Data from the previous 72 hours. | See also: Recent months at Barrow Island
Date/Time
WST
Temp
°C
Wind Pressure Rain since
9am
mm
Weather Cloud Vis
km
Sea
Height
m
Swell
Dir  Spd
kts
Gust
kts
hPa Trend Height
m
Period
s
Dir
25/08:00am 20.1 S 13 16 1015.0 - 0.0 - - - - - - -
25/07:30am 19.8 SSW 14 16 1014.7 - 0.0 - - - - - - -
25/07:00am 19.8 SSW 15 17 1014.2 - 0.0 - - - - - - -
25/06:30am 19.9 SSW 16 19 1014.1 - 0.0 - - - - - - -
25/06:00am 19.9 SSW 16 19 1013.9 - 0.0 - - - - - - -
25/05:30am 20.0 SSW 16 19 1013.8 - 0.0 - - - - - - -
25/05:00am 20.0 SSW 16 19 1013.9 - 0.0 - - - - - - -
25/04:30am 20.0 SSW 16 19 1014.1 - 0.0 - - - - - - -
25/04:00am 20.2 SSW 16 19 1014.0 - 0.0 - - - - - - -
25/03:30am 20.4 SSW 14 16 1014.0 - 0.0 - - - - - - -
25/03:00am 20.7 SSW 11 13 1014.1 - 0.0 - - - - - - -
25/02:30am 21.0 SSW 13 15 1014.2 - 0.0 - - - - - - -
25/02:00am 20.8 SSW 13 14 1014.3 - 0.0 - - - - - - -
25/01:30am 20.9 SSW 12 13 1014.6 - 0.0 - - - - - - -
25/01:00am 20.8 SW 11 13 1014.5 - 0.0 - - - - - - -
25/12:30am 20.7 SW 11 12 1014.6 - 0.0 - - - - - - -
25/12:00am 20.6 SW 11 13 1014.6 - 0.0 - - - - - - -
 
Date/Time
WST
Temp
°C
Wind Pressure Rain since
9am
mm
Weather Cloud Vis
km
Sea
Height
m
Swell
Dir  Spd
kts
Gust
kts
hPa Trend Height
m
Period
s
Dir
24/11:30pm 20.8 SW 10 13 1014.8 - 0.0 - - - - - - -
24/11:00pm 20.8 SW 11 12 1015.0 - 0.0 - - - - - - -
24/10:30pm 21.0 SW 12 14 1015.0 - 0.0 - - - - - - -
24/10:00pm 20.7 WSW 11 13 1015.0 - 0.0 - - - - - - -
24/09:30pm 20.3 WSW 9 11 1014.9 - 0.0 - - - - - - -
24/09:00pm 20.3 WSW 10 11 1014.8 - 0.0 - - - - - - -
24/08:30pm 20.6 WSW 11 13 1014.6 - 0.0 - - - - - - -
24/08:00pm 20.4 WSW 10 12 1014.4 - 0.0 - - - - - - -
24/07:30pm 20.3 WSW 11 13 1014.3 - 0.0 - - - - - - -
24/07:00pm 20.7 WSW 12 15 1013.9 - 0.0 - - - - - - -
24/06:30pm 20.8 WSW 13 16 1013.7 - 0.0 - - - - - - -
24/06:00pm 20.9 WSW 14 17 1013.3 - 0.0 - - - - - - -
24/05:30pm 21.3 WSW 15 18 1013.0 - 0.0 - - - - - - -
24/05:00pm 21.9 SW 15 18 1012.9 - 0.0 - - - - - - -
24/04:30pm 22.3 SW 16 19 1012.7 - 0.0 - - - - - - -
24/04:00pm 22.5 SW 16 19 1012.6 - 0.0 - - - - - - -
24/03:30pm 22.6 SW 15 18 1012.3 - 0.0 - - - - - - -
24/03:00pm 22.8 SW 14 17 1012.3 - 0.0 - - - - - - -
24/02:30pm 22.5 SW 15 17 1012.5 - 0.0 - - - - - - -
24/02:00pm 22.2 SW 12 15 1012.8 - 0.0 - - - - - - -
24/01:30pm 22.0 SSW 12 15 1012.8 - 0.0 - - - - - - -
24/01:00pm 21.9 SSW 10 12 1013.2 - 0.0 - - - - - - -
24/12:30pm 22.4 S 8 10 1013.7 - 0.0 - - - - - - -
24/12:00pm 21.6 S 10 12 1014.3 - 0.0 - - - - - - -
24/11:30am 22.3 S 12 14 1014.6 - 0.0 - - - - - - -
24/11:00am 22.1 S 13 15 1014.9 - 0.0 - - - - - - -
24/10:30am 21.5 S 13 15 1015.1 - 0.0 - - - - - - -
24/10:00am 21.0 S 13 16 1015.4 - 0.0 - - - - - - -
24/09:30am 20.9 S 16 18 1015.6 - 0.0 - - - - - - -
24/09:00am 20.6 S 15 17 1015.4 - 0.0 - - - - - - -
24/08:30am 20.1 S 14 17 1015.3 - 0.0 - - - - - - -
24/08:00am 19.8 S 16 18 1015.1 - 0.0 - - - - - - -
24/07:30am 19.6 S 17 19 1014.6 - 0.0 - - - - - - -
24/07:00am 19.5 S 16 18 1014.3 - 0.0 - - - - - - -
24/06:30am 19.3 S 18 21 1014.2 - 0.0 - - - - - - -
24/06:00am 19.3 SSW 19 21 1014.0 - 0.0 - - - - - - -
24/05:30am 19.4 SSW 17 20 1014.0 - 0.0 - - - - - - -
24/05:00am 19.6 SSW 17 19 1013.9 - 0.0 - - - - - - -
24/04:30am 19.4 SSW 18 20 1014.1 - 0.0 - - - - - - -
24/04:00am 19.6 SSW 17 20 1014.2 - 0.0 - - - - - - -
24/03:30am 19.8 SSW 16 19 1014.3 - 0.0 - - - - - - -
24/03:00am 20.0 SSW 17 20 1014.5 - 0.0 - - - - - - -
24/02:30am 20.2 SSW 17 20 1014.8 - 0.0 - - - - - - -
24/02:00am 20.2 SSW 18 22 1014.9 - 0.0 - - - - - - -
24/01:30am 20.2 SSW 16 19 1015.3 - 0.0 - - - - - - -
24/01:00am 20.3 SSW 16 20 1015.2 - 0.0 - - - - - - -
24/12:30am 20.8 S 17 20 1015.2 - 0.0 - - - - - - -
24/12:00am 20.8 S 17 20 1015.1 - 0.0 - - - - - - -
 
Date/Time
WST
Temp
°C
Wind Pressure Rain since
9am
mm
Weather Cloud Vis
km
Sea
Height
m
Swell
Dir  Spd
kts
Gust
kts
hPa Trend Height
m
Period
s
Dir
23/11:30pm 21.1 S 19 22 1015.1 - 0.0 - - - - - - -
23/11:00pm 21.4 SSW 18 21 1015.4 - 0.0 - - - - - - -
23/10:30pm 21.5 SSW 17 19 1015.5 - 0.0 - - - - - - -
23/10:00pm 21.6 SSW 18 21 1015.4 - 0.0 - - - - - - -
23/09:30pm 21.7 SSW 18 21 1015.4 - 0.0 - - - - - - -
23/09:00pm 21.7 SSW 18 21 1015.2 - 0.0 - - - - - - -
23/08:30pm 21.5 SSW 17 21 1015.0 - 0.0 - - - - - - -
23/08:00pm 20.8 SW 16 18 1015.0 - 0.0 - - - - - - -
23/07:30pm 20.6 SW 17 19 1014.6 - 0.0 - - - - - - -
23/07:00pm 20.2 SW 14 16 1014.8 - 0.0 - - - - - - -
23/06:30pm 20.2 SW 14 17 1014.4 - 0.0 - - - - - - -
23/06:00pm 20.2 SW 13 17 1014.2 - 0.0 - - - - - - -
23/05:30pm 20.7 SW 15 18 1013.9 - 0.0 - - - - - - -
23/05:00pm 21.1 SW 16 19 1013.9 - 0.0 - - - - - - -
23/04:30pm 22.0 SW 15 19 1014.0 - 0.0 - - - - - - -
23/04:00pm 22.5 SSW 15 18 1014.1 - 0.0 - - - - - - -
23/03:30pm 22.7 SSW 14 17 1014.2 - 0.0 - - - - - - -
23/03:00pm 22.4 SSW 15 19 1014.3 - 0.0 - - - - - - -
23/02:30pm 22.5 SSW 16 18 1014.5 - 0.0 - - - - - - -
23/02:00pm 22.6 SSW 15 18 1014.5 - 0.0 - - - - - - -
23/01:30pm 22.5 SSW 17 19 1014.8 - 0.0 - - - - - - -
23/01:00pm 22.1 S 18 21 1015.4 - 0.0 - - - - - - -
23/12:30pm 22.2 S 17 20 1016.3 - 0.0 - - - - - - -
23/12:00pm 22.2 S 18 21 1016.9 - 0.0 - - - - - - -
23/11:30am 21.7 S 17 20 1017.2 - 0.0 - - - - - - -
23/11:00am 21.7 S 17 20 1017.4 - 0.0 - - - - - - -
23/10:30am 21.8 S 17 21 1017.5 - 0.0 - - - - - - -
23/10:00am 21.4 S 18 21 1017.6 - 0.0 - - - - - - -
23/09:30am 20.7 S 21 24 1017.8 - 0.0 - - - - - - -
23/09:00am 20.7 S 21 24 1018.0 - 0.0 - - - - - - -
23/08:30am 20.5 S 20 23 1017.8 - 0.0 - - - - - - -
23/08:00am 20.2 S 21 25 1017.9 - 0.0 - - - - - - -
23/07:30am 19.8 S 20 24 1017.3 - 0.0 - - - - - - -
23/07:00am 19.8 S 20 23 1017.0 - 0.0 - - - - - - -
23/06:30am 19.9 S 22 26 1016.5 - 0.0 - - - - - - -
23/06:00am 19.8 S 23 26 1015.7 - 0.0 - - - - - - -
23/05:30am 19.7 S 21 25 1016.1 - 0.0 - - - - - - -
23/05:00am 19.9 S 23 27 1016.3 - 0.0 - - - - - - -
23/04:30am 20.0 S 23 26 1016.4 - 0.0 - - - - - - -
23/04:00am 20.1 S 23 26 1016.4 - 0.0 - - - - - - -
23/03:30am 20.2 S 21 24 1016.6 - 0.0 - - - - - - -
23/03:00am 20.4 S 23 26 1016.7 - 0.0 - - - - - - -
23/02:30am 20.5 S 23 26 1016.8 - 0.0 - - - - - - -
23/02:00am 21.0 S 24 27 1016.8 - 0.0 - - - - - - -
23/01:30am 21.3 S 25 30 1017.0 - 0.0 - - - - - - -
23/01:00am 21.5 S 24 28 1017.1 - 0.0 - - - - - - -
23/12:30am 21.7 S 24 28 1017.3 - 0.0 - - - - - - -
23/12:00am 22.0 S 22 27 1017.3 - 0.0 - - - - - - -
 
Date/Time
WST
Temp
°C
Wind Pressure Rain since
9am
mm
Weather Cloud Vis
km
Sea
Height
m
Swell
Dir  Spd
kts
Gust
kts
hPa Trend Height
m
Period
s
Dir
22/11:30pm 22.3 S 23 26 1017.5 - 0.0 - - - - - - -
22/11:00pm 22.4 S 22 25 1017.5 - 0.0 - - - - - - -
22/10:30pm 22.6 S 20 24 1017.5 - 0.0 - - - - - - -
22/10:00pm 23.0 S 22 26 1017.5 - 0.0 - - - - - - -
22/09:30pm 23.3 S 21 25 1017.6 - 0.0 - - - - - - -
22/09:00pm 23.4 S 20 24 1017.0 - 0.0 - - - - - - -
22/08:30pm 23.5 S 18 21 1016.7 - 0.0 - - - - - - -
22/08:00pm 23.2 S 17 20 1016.6 - 0.0 - - - - - - -
22/07:30pm 23.4 SSW 16 20 1016.4 - 0.0 - - - - - - -
22/07:00pm 23.3 SSW 16 18 1016.1 - 0.0 - - - - - - -
22/06:30pm 23.3 SSW 16 19 1015.8 - 0.0 - - - - - - -
22/06:00pm 22.9 SW 15 17 1015.5 - 0.0 - - - - - - -
22/05:30pm 23.0 SW 15 18 1015.4 - 0.0 - - - - - - -
22/05:00pm 24.0 SSW 14 16 1015.3 - 0.0 - - - - - - -
22/04:30pm 23.8 SW 14 17 1015.2 - 0.0 - - - - - - -
22/04:00pm 24.6 SW 12 14 1015.1 - 0.0 - - - - - - -
22/03:30pm 24.3 SSW 12 14 1015.1 - 0.0 - - - - - - -
22/03:00pm 24.6 SSW 11 13 1015.1 - 0.0 - - - - - - -
22/02:30pm 24.4 S 12 14 1015.3 - 0.0 - - - - - - -
22/02:00pm 24.0 S 15 16 1015.6 - 0.0 - - - - - - -
22/01:30pm 24.3 S 17 20 1015.9 - 0.0 - - - - - - -
22/01:00pm 24.1 S 18 20 1016.3 - 0.0 - - - - - - -
22/12:30pm 22.8 S 19 23 1016.5 - 0.0 - - - - - - -
22/12:00pm 22.7 S 18 22 1017.1 - 0.0 - - - - - - -
22/11:30am 23.1 S 19 22 1017.4 - 0.0 - - - - - - -
22/11:00am 22.6 S 19 22 1017.6 - 0.0 - - - - - - -
22/10:30am 22.1 S 19 23 1018.0 - 0.0 - - - - - - -
22/10:00am 21.8 S 19 22 1018.1 - 0.0 - - - - - - -
22/09:30am 22.4 S 18 21 1018.3 - 0.0 - - - - - - -
22/09:00am 22.4 SSW 16 19 1018.2 - 0.0 - - - - - - -
22/08:30am 22.7 S 13 16 1017.9 - 0.0 - - - - - - -

Other Formats:

Comma delimited format used in spreadsheet applications
http://www.bom.gov.au/fwo/IDW60701/IDW60701.95304.axf

JavaScript Object Notation format (JSON) in row-major order
http://www.bom.gov.au/fwo/IDW60701/IDW60701.95304.json